KBNO/BNO METAR and TAF weather

Enter ICAO airport designator
Station Type Date Time Source
KBNO METAR 2021/09/23 23:53 UTC NOAA

KBNO 232353Z AUTO 15005KT 10SM CLR 24/02 A3022 RMK AO2 SLP217 T02390022 10244 20161 58014


Station Type Date Time Source
KBNO Decoded METAR 2021/09/23 23:53 UTC NOAA

BURNS MUNICIPAL AIRPORT, OR, United States (KBNO) 43-36N 118-57W 1264M
Sep 23, 2021 - 07:53 PM EDT / 2021.09.23 2353 UTC
Wind: from the SSE (150 degrees) at 6 MPH (5 KT):0
Visibility: 10 mile(s):0
Sky conditions: clear
Temperature: 75.0 F (23.9 C)
Dew Point: 36.0 F (2.2 C)
Relative Humidity: 24%
Pressure (altimeter): 30.22 in. Hg (1023 hPa)
Pressure tendency: 0.04 inches (1.4 hPa) lower than three hours ago
ob: KBNO 232353Z AUTO 15005KT 10SM CLR 24/02 A3022 RMK AO2 SLP217 T02390022 10244 20161 58014
cycle: 0

Station Type Date Time Source
KBNO TAF 2021/09/23 18:22 UTC NOAA

TAF KBNO 231720Z 2318/2418 VRB05KT P6SM SKC

Example: see airport list